sensor_id;sensor_type;location;lat;lon;timestamp;temperature;humidity
9776;DHT22;4927;52.472;13.108;2023-10-13T00:00:31;13.80;99.90
9776;DHT22;4927;52.472;13.108;2023-10-13T00:01:38;13.80;99.90
9776;DHT22;4927;52.472;13.108;2023-10-13T00:02:40;13.70;99.90
9776;DHT22;4927;52.472;13.108;2023-10-13T00:03:41;13.70;99.90
9776;DHT22;4927;52.472;13.108;2023-10-13T00:04:43;13.70;99.90
9776;DHT22;4927;52.472;13.108;2023-10-13T00:05:46;13.70;99.90
9776;DHT22;4927;52.472;13.108;2023-10-13T00:06:48;13.70;99.90
9776;DHT22;4927;52.472;13.108;2023-10-13T00:07:49;13.70;99.90
9776;DHT22;4927;52.472;13.108;2023-10-13T00:08:52;13.70;99.90
9776;DHT22;4927;52.472;13.108;2023-10-13T00:09:53;13.70;99.90
9776;DHT22;4927;52.472;13.108;2023-10-13T00:10:56;13.70;99.90
9776;DHT22;4927;52.472;13.108;2023-10-13T00:11:59;13.70;99.90
9776;DHT22;4927;52.472;13.108;2023-10-13T00:13:01;13.70;99.90
9776;DHT22;4927;52.472;13.108;2023-10-13T00:14:07;13.70;99.90
9776;DHT22;4927;52.472;13.108;2023-10-13T00:15:10;13.70;99.90
9776;DHT22;4927;52.472;13.108;2023-10-13T00:16:13;13.70;99.90
9776;DHT22;4927;52.472;13.108;2023-10-13T00:17:15;13.70;99.90
9776;DHT22;4927;52.472;13.108;2023-10-13T00:18:17;13.70;99.90
9776;DHT22;4927;52.472;13.108;2023-10-13T00:19:20;13.70;99.90
9776;DHT22;4927;52.472;13.108;2023-10-13T00:20:23;13.70;99.90
9776;DHT22;4927;52.472;13.108;2023-10-13T00:21:30;13.70;99.90
9776;DHT22;4927;52.472;13.108;2023-10-13T00:22:32;13.70;99.90
9776;DHT22;4927;52.472;13.108;2023-10-13T00:23:34;13.70;99.90
9776;DHT22;4927;52.472;13.108;2023-10-13T00:24:36;13.70;99.90
9776;DHT22;4927;52.472;13.108;2023-10-13T00:25:38;13.70;99.90
9776;DHT22;4927;52.472;13.108;2023-10-13T00:26:41;13.70;99.90
9776;DHT22;4927;52.472;13.108;2023-10-13T00:27:43;13.70;99.90
9776;DHT22;4927;52.472;13.108;2023-10-13T00:28:44;13.70;99.90
9776;DHT22;4927;52.472;13.108;2023-10-13T00:29:48;13.80;99.90
9776;DHT22;4927;52.472;13.108;2023-10-13T00:30:50;13.70;99.90
9776;DHT22;4927;52.472;13.108;2023-10-13T00:31:51;13.70;99.90
9776;DHT22;4927;52.472;13.108;2023-10-13T00:32:53;13.80;99.90
9776;DHT22;4927;52.472;13.108;2023-10-13T00:33:56;13.70;99.90
9776;DHT22;4927;52.472;13.108;2023-10-13T00:34:58;13.70;99.90
9776;DHT22;4927;52.472;13.108;2023-10-13T00:36:01;13.80;99.90
9776;DHT22;4927;52.472;13.108;2023-10-13T00:37:02;13.80;99.90
9776;DHT22;4927;52.472;13.108;2023-10-13T00:38:10;13.80;99.90
9776;DHT22;4927;52.472;13.108;2023-10-13T00:39:14;13.80;99.90
9776;DHT22;4927;52.472;13.108;2023-10-13T00:40:16;13.80;99.90
9776;DHT22;4927;52.472;13.108;2023-10-13T00:41:18;13.80;99.90
9776;DHT22;4927;52.472;13.108;2023-10-13T00:42:20;13.80;99.90
9776;DHT22;4927;52.472;13.108;2023-10-13T00:43:22;13.80;99.90
9776;DHT22;4927;52.472;13.108;2023-10-13T00:44:33;13.80;99.90
9776;DHT22;4927;52.472;13.108;2023-10-13T00:45:40;13.80;99.90
9776;DHT22;4927;52.472;13.108;2023-10-13T00:46:41;13.80;99.90
9776;DHT22;4927;52.472;13.108;2023-10-13T00:47:44;13.80;99.90
9776;DHT22;4927;52.472;13.108;2023-10-13T00:48:50;13.80;99.90
9776;DHT22;4927;52.472;13.108;2023-10-13T00:49:53;13.80;99.90
9776;DHT22;4927;52.472;13.108;2023-10-13T00:50:57;13.80;99.90
9776;DHT22;4927;52.472;13.108;2023-10-13T00:51:58;13.80;99.90
9776;DHT22;4927;52.472;13.108;2023-10-13T00:53:00;13.80;99.90
9776;DHT22;4927;52.472;13.108;2023-10-13T00:54:03;13.80;99.90
9776;DHT22;4927;52.472;13.108;2023-10-13T00:55:06;13.80;99.90
9776;DHT22;4927;52.472;13.108;2023-10-13T00:56:08;13.80;99.90
9776;DHT22;4927;52.472;13.108;2023-10-13T00:57:13;13.80;99.90
9776;DHT22;4927;52.472;13.108;2023-10-13T00:58:15;13.80;99.90
9776;DHT22;4927;52.472;13.108;2023-10-13T00:59:17;13.80;99.90
9776;DHT22;4927;52.472;13.108;2023-10-13T01:00:19;13.80;99.90
9776;DHT22;4927;52.472;13.108;2023-10-13T01:01:21;13.80;99.90
9776;DHT22;4927;52.472;13.108;2023-10-13T01:02:23;13.80;99.90
9776;DHT22;4927;52.472;13.108;2023-10-13T01:03:31;13.80;99.90
9776;DHT22;4927;52.472;13.108;2023-10-13T01:04:33;13.80;99.90
9776;DHT22;4927;52.472;13.108;2023-10-13T01:05:35;13.80;99.90
9776;DHT22;4927;52.472;13.108;2023-10-13T01:06:37;13.80;99.90
9776;DHT22;4927;52.472;13.108;2023-10-13T01:07:40;13.80;99.90
9776;DHT22;4927;52.472;13.108;2023-10-13T01:08:45;13.80;99.90
9776;DHT22;4927;52.472;13.108;2023-10-13T01:09:45;13.80;99.90
9776;DHT22;4927;52.472;13.108;2023-10-13T01:10:47;13.80;99.90
9776;DHT22;4927;52.472;13.108;2023-10-13T01:11:49;13.80;99.90
9776;DHT22;4927;52.472;13.108;2023-10-13T01:12:54;13.80;99.90
9776;DHT22;4927;52.472;13.108;2023-10-13T01:13:55;13.80;99.90
9776;DHT22;4927;52.472;13.108;2023-10-13T01:14:58;13.80;99.90
9776;DHT22;4927;52.472;13.108;2023-10-13T01:15:59;13.80;99.90
9776;DHT22;4927;52.472;13.108;2023-10-13T01:17:01;13.80;99.90
9776;DHT22;4927;52.472;13.108;2023-10-13T01:18:07;13.80;99.90
9776;DHT22;4927;52.472;13.108;2023-10-13T01:19:13;13.80;99.90
9776;DHT22;4927;52.472;13.108;2023-10-13T01:20:15;13.80;99.90
9776;DHT22;4927;52.472;13.108;2023-10-13T01:21:20;13.80;99.90
9776;DHT22;4927;52.472;13.108;2023-10-13T01:22:22;13.80;99.90
9776;DHT22;4927;52.472;13.108;2023-10-13T01:23:25;13.80;99.90
9776;DHT22;4927;52.472;13.108;2023-10-13T01:24:26;13.80;99.90
9776;DHT22;4927;52.472;13.108;2023-10-13T01:25:28;13.80;99.90
9776;DHT22;4927;52.472;13.108;2023-10-13T01:26:29;13.80;99.90
9776;DHT22;4927;52.472;13.108;2023-10-13T01:27:31;13.80;99.90
9776;DHT22;4927;52.472;13.108;2023-10-13T01:28:33;13.80;99.90
9776;DHT22;4927;52.472;13.108;2023-10-13T01:29:35;13.80;99.90
9776;DHT22;4927;52.472;13.108;2023-10-13T01:30:36;13.80;99.90
9776;DHT22;4927;52.472;13.108;2023-10-13T01:31:41;13.80;99.90
9776;DHT22;4927;52.472;13.108;2023-10-13T01:32:46;13.80;99.90
9776;DHT22;4927;52.472;13.108;2023-10-13T01:33:48;13.80;99.90
9776;DHT22;4927;52.472;13.108;2023-10-13T01:34:50;13.80;99.90
9776;DHT22;4927;52.472;13.108;2023-10-13T01:35:52;13.80;99.90
9776;DHT22;4927;52.472;13.108;2023-10-13T01:36:54;13.70;99.90
9776;DHT22;4927;52.472;13.108;2023-10-13T01:37:55;13.80;99.90
9776;DHT22;4927;52.472;13.108;2023-10-13T01:38:57;13.70;99.90
9776;DHT22;4927;52.472;13.108;2023-10-13T01:39:59;13.70;99.90
9776;DHT22;4927;52.472;13.108;2023-10-13T01:41:04;13.70;99.90
9776;DHT22;4927;52.472;13.108;2023-10-13T01:42:03;13.80;99.90
9776;DHT22;4927;52.472;13.108;2023-10-13T01:43:06;13.80;99.90
9776;DHT22;4927;52.472;13.108;2023-10-13T01:44:08;13.80;99.90
9776;DHT22;4927;52.472;13.108;2023-10-13T01:45:10;13.80;99.90
9776;DHT22;4927;52.472;13.108;2023-10-13T01:46:11;13.80;99.90
9776;DHT22;4927;52.472;13.108;2023-10-13T01:47:14;13.70;99.90
9776;DHT22;4927;52.472;13.108;2023-10-13T01:48:16;13.80;99.90
9776;DHT22;4927;52.472;13.108;2023-10-13T01:49:18;13.70;99.90
9776;DHT22;4927;52.472;13.108;2023-10-13T01:50:20;13.70;99.90
9776;DHT22;4927;52.472;13.108;2023-10-13T01:51:21;13.80;99.90
9776;DHT22;4927;52.472;13.108;2023-10-13T01:52:23;13.70;99.90
9776;DHT22;4927;52.472;13.108;2023-10-13T01:53:25;13.80;99.90
9776;DHT22;4927;52.472;13.108;2023-10-13T01:54:28;13.80;99.90
9776;DHT22;4927;52.472;13.108;2023-10-13T01:55:30;13.80;99.90
9776;DHT22;4927;52.472;13.108;2023-10-13T01:56:33;13.80;99.90
9776;DHT22;4927;52.472;13.108;2023-10-13T01:57:35;13.70;99.90
9776;DHT22;4927;52.472;13.108;2023-10-13T01:58:38;13.70;99.90
9776;DHT22;4927;52.472;13.108;2023-10-13T01:59:40;13.70;99.90
9776;DHT22;4927;52.472;13.108;2023-10-13T02:00:44;13.80;99.90
9776;DHT22;4927;52.472;13.108;2023-10-13T02:01:45;13.70;99.90
9776;DHT22;4927;52.472;13.108;2023-10-13T02:02:47;13.70;99.90
9776;DHT22;4927;52.472;13.108;2023-10-13T02:03:49;13.70;99.90
9776;DHT22;4927;52.472;13.108;2023-10-13T02:04:51;13.70;99.90
9776;DHT22;4927;52.472;13.108;2023-10-13T02:05:57;13.70;99.90
9776;DHT22;4927;52.472;13.108;2023-10-13T02:06:59;13.70;99.90
9776;DHT22;4927;52.472;13.108;2023-10-13T02:08:00;13.70;99.90
9776;DHT22;4927;52.472;13.108;2023-10-13T02:09:04;13.70;99.90
9776;DHT22;4927;52.472;13.108;2023-10-13T02:10:15;13.70;99.90
9776;DHT22;4927;52.472;13.108;2023-10-13T02:11:17;13.70;99.90
9776;DHT22;4927;52.472;13.108;2023-10-13T02:12:18;13.70;99.90
9776;DHT22;4927;52.472;13.108;2023-10-13T02:13:21;13.70;99.90
9776;DHT22;4927;52.472;13.108;2023-10-13T02:14:23;13.80;99.90
9776;DHT22;4927;52.472;13.108;2023-10-13T02:15:25;13.70;99.90
9776;DHT22;4927;52.472;13.108;2023-10-13T02:16:26;13.70;99.90
9776;DHT22;4927;52.472;13.108;2023-10-13T02:17:28;13.80;99.90
9776;DHT22;4927;52.472;13.108;2023-10-13T02:18:30;13.80;99.90
9776;DHT22;4927;52.472;13.108;2023-10-13T02:19:34;13.70;99.90
9776;DHT22;4927;52.472;13.108;2023-10-13T02:20:36;13.70;99.90
9776;DHT22;4927;52.472;13.108;2023-10-13T02:21:39;13.80;99.90
9776;DHT22;4927;52.472;13.108;2023-10-13T02:22:41;13.80;99.90
9776;DHT22;4927;52.472;13.108;2023-10-13T02:23:45;13.80;99.90
9776;DHT22;4927;52.472;13.108;2023-10-13T02:24:47;13.80;99.90
9776;DHT22;4927;52.472;13.108;2023-10-13T02:25:48;13.70;99.90
9776;DHT22;4927;52.472;13.108;2023-10-13T02:26:51;13.80;99.90
9776;DHT22;4927;52.472;13.108;2023-10-13T02:27:53;13.80;99.90
9776;DHT22;4927;52.472;13.108;2023-10-13T02:28:54;13.80;99.90
9776;DHT22;4927;52.472;13.108;2023-10-13T02:29:56;13.80;99.90
9776;DHT22;4927;52.472;13.108;2023-10-13T02:31:01;13.80;99.90
9776;DHT22;4927;52.472;13.108;2023-10-13T02:32:03;13.80;99.90
9776;DHT22;4927;52.472;13.108;2023-10-13T02:33:06;13.80;99.90
9776;DHT22;4927;52.472;13.108;2023-10-13T02:34:08;13.80;99.90
9776;DHT22;4927;52.472;13.108;2023-10-13T02:35:10;13.80;99.90
9776;DHT22;4927;52.472;13.108;2023-10-13T02:36:12;13.80;99.90
9776;DHT22;4927;52.472;13.108;2023-10-13T02:37:14;13.80;99.90
9776;DHT22;4927;52.472;13.108;2023-10-13T02:38:16;13.80;99.90
9776;DHT22;4927;52.472;13.108;2023-10-13T02:39:18;13.80;99.90
9776;DHT22;4927;52.472;13.108;2023-10-13T02:40:19;13.80;99.90
9776;DHT22;4927;52.472;13.108;2023-10-13T02:41:22;13.80;99.90
9776;DHT22;4927;52.472;13.108;2023-10-13T02:42:27;13.80;99.90
9776;DHT22;4927;52.472;13.108;2023-10-13T02:43:29;13.80;99.90
9776;DHT22;4927;52.472;13.108;2023-10-13T02:44:31;13.80;99.90
9776;DHT22;4927;52.472;13.108;2023-10-13T02:45:33;13.80;99.90
9776;DHT22;4927;52.472;13.108;2023-10-13T02:46:35;13.80;99.90
9776;DHT22;4927;52.472;13.108;2023-10-13T02:47:37;13.80;99.90
9776;DHT22;4927;52.472;13.108;2023-10-13T02:48:38;13.80;99.90
9776;DHT22;4927;52.472;13.108;2023-10-13T02:49:41;13.80;99.90
9776;DHT22;4927;52.472;13.108;2023-10-13T02:50:43;13.80;99.90
9776;DHT22;4927;52.472;13.108;2023-10-13T02:51:46;13.80;99.90
9776;DHT22;4927;52.472;13.108;2023-10-13T02:52:48;13.80;99.90
9776;DHT22;4927;52.472;13.108;2023-10-13T02:53:51;13.80;99.90
9776;DHT22;4927;52.472;13.108;2023-10-13T02:54:53;13.80;99.90
9776;DHT22;4927;52.472;13.108;2023-10-13T02:55:55;13.80;99.90
9776;DHT22;4927;52.472;13.108;2023-10-13T02:56:58;13.80;99.90
9776;DHT22;4927;52.472;13.108;2023-10-13T02:58:01;13.80;99.90
9776;DHT22;4927;52.472;13.108;2023-10-13T02:59:03;13.90;99.90
9776;DHT22;4927;52.472;13.108;2023-10-13T03:00:07;13.80;99.90
9776;DHT22;4927;52.472;13.108;2023-10-13T03:01:13;13.80;99.90
9776;DHT22;4927;52.472;13.108;2023-10-13T03:02:19;13.90;99.90
9776;DHT22;4927;52.472;13.108;2023-10-13T03:03:45;13.80;99.90
9776;DHT22;4927;52.472;13.108;2023-10-13T03:04:49;13.80;99.90
9776;DHT22;4927;52.472;13.108;2023-10-13T03:05:51;13.80;99.90
9776;DHT22;4927;52.472;13.108;2023-10-13T03:06:54;13.90;99.90
9776;DHT22;4927;52.472;13.108;2023-10-13T03:07:56;13.90;99.90
9776;DHT22;4927;52.472;13.108;2023-10-13T03:08:58;13.90;99.90
9776;DHT22;4927;52.472;13.108;2023-10-13T03:10:02;13.90;99.90
9776;DHT22;4927;52.472;13.108;2023-10-13T03:11:03;13.90;99.90
9776;DHT22;4927;52.472;13.108;2023-10-13T03:12:05;13.90;99.90
9776;DHT22;4927;52.472;13.108;2023-10-13T03:13:07;13.90;99.90
9776;DHT22;4927;52.472;13.108;2023-10-13T03:14:09;13.90;99.90
9776;DHT22;4927;52.472;13.108;2023-10-13T03:15:11;13.90;99.90
9776;DHT22;4927;52.472;13.108;2023-10-13T03:16:14;13.90;99.90
9776;DHT22;4927;52.472;13.108;2023-10-13T03:17:16;13.90;99.90
9776;DHT22;4927;52.472;13.108;2023-10-13T03:18:19;13.90;99.90
9776;DHT22;4927;52.472;13.108;2023-10-13T03:19:20;13.90;99.90
9776;DHT22;4927;52.472;13.108;2023-10-13T03:20:22;13.90;99.90
9776;DHT22;4927;52.472;13.108;2023-10-13T03:21:24;13.90;99.90
9776;DHT22;4927;52.472;13.108;2023-10-13T03:22:30;13.90;99.90
9776;DHT22;4927;52.472;13.108;2023-10-13T03:23:32;13.90;99.90
9776;DHT22;4927;52.472;13.108;2023-10-13T03:24:35;13.90;99.90
9776;DHT22;4927;52.472;13.108;2023-10-13T03:25:37;13.90;99.90
9776;DHT22;4927;52.472;13.108;2023-10-13T03:26:39;13.90;99.90
9776;DHT22;4927;52.472;13.108;2023-10-13T03:27:41;13.90;99.90
9776;DHT22;4927;52.472;13.108;2023-10-13T03:28:53;13.90;99.90
9776;DHT22;4927;52.472;13.108;2023-10-13T03:29:55;13.90;99.90
9776;DHT22;4927;52.472;13.108;2023-10-13T03:30:57;13.90;99.90
9776;DHT22;4927;52.472;13.108;2023-10-13T03:31:59;14.00;99.90
9776;DHT22;4927;52.472;13.108;2023-10-13T03:33:09;14.00;99.90
9776;DHT22;4927;52.472;13.108;2023-10-13T03:34:11;13.90;99.90
9776;DHT22;4927;52.472;13.108;2023-10-13T03:35:14;13.90;99.90
9776;DHT22;4927;52.472;13.108;2023-10-13T03:36:16;14.00;99.90
9776;DHT22;4927;52.472;13.108;2023-10-13T03:37:18;14.00;99.90
9776;DHT22;4927;52.472;13.108;2023-10-13T03:38:20;13.90;99.90
9776;DHT22;4927;52.472;13.108;2023-10-13T03:39:21;13.90;99.90
9776;DHT22;4927;52.472;13.108;2023-10-13T03:40:23;13.90;99.90
9776;DHT22;4927;52.472;13.108;2023-10-13T03:41:40;13.90;99.90
9776;DHT22;4927;52.472;13.108;2023-10-13T03:42:42;13.90;99.90
9776;DHT22;4927;52.472;13.108;2023-10-13T03:43:44;14.00;99.90
9776;DHT22;4927;52.472;13.108;2023-10-13T03:44:46;13.90;99.90
9776;DHT22;4927;52.472;13.108;2023-10-13T03:45:48;13.90;99.90
9776;DHT22;4927;52.472;13.108;2023-10-13T03:46:50;13.90;99.90
9776;DHT22;4927;52.472;13.108;2023-10-13T03:47:52;14.00;99.90
9776;DHT22;4927;52.472;13.108;2023-10-13T03:48:53;13.90;99.90
9776;DHT22;4927;52.472;13.108;2023-10-13T03:49:57;14.00;99.90
9776;DHT22;4927;52.472;13.108;2023-10-13T03:50:59;13.90;99.90
9776;DHT22;4927;52.472;13.108;2023-10-13T03:52:04;13.90;99.90
9776;DHT22;4927;52.472;13.108;2023-10-13T03:53:06;14.00;99.90
9776;DHT22;4927;52.472;13.108;2023-10-13T03:54:08;13.90;99.90
9776;DHT22;4927;52.472;13.108;2023-10-13T03:55:10;14.00;99.90
9776;DHT22;4927;52.472;13.108;2023-10-13T03:56:12;13.90;99.90
9776;DHT22;4927;52.472;13.108;2023-10-13T03:57:13;13.90;99.90
9776;DHT22;4927;52.472;13.108;2023-10-13T03:58:15;14.00;99.90
9776;DHT22;4927;52.472;13.108;2023-10-13T03:59:17;14.00;99.90
9776;DHT22;4927;52.472;13.108;2023-10-13T04:00:22;14.00;99.90
9776;DHT22;4927;52.472;13.108;2023-10-13T04:01:23;13.90;99.90
9776;DHT22;4927;52.472;13.108;2023-10-13T04:02:30;14.00;99.90
9776;DHT22;4927;52.472;13.108;2023-10-13T04:03:32;14.00;99.90
9776;DHT22;4927;52.472;13.108;2023-10-13T04:04:36;14.00;99.90
9776;DHT22;4927;52.472;13.108;2023-10-13T04:05:38;14.00;99.90
9776;DHT22;4927;52.472;13.108;2023-10-13T04:06:42;14.00;99.90
9776;DHT22;4927;52.472;13.108;2023-10-13T04:08:01;14.00;99.90
9776;DHT22;4927;52.472;13.108;2023-10-13T04:09:04;14.00;99.90
9776;DHT22;4927;52.472;13.108;2023-10-13T04:10:22;14.00;99.90
9776;DHT22;4927;52.472;13.108;2023-10-13T04:11:31;14.00;99.90
9776;DHT22;4927;52.472;13.108;2023-10-13T04:12:39;14.00;99.90
9776;DHT22;4927;52.472;13.108;2023-10-13T04:13:47;14.00;99.90
9776;DHT22;4927;52.472;13.108;2023-10-13T04:15:07;14.00;99.90
9776;DHT22;4927;52.472;13.108;2023-10-13T04:16:17;14.00;99.90
9776;DHT22;4927;52.472;13.108;2023-10-13T04:17:38;14.00;99.90
9776;DHT22;4927;52.472;13.108;2023-10-13T04:18:42;14.00;99.90
9776;DHT22;4927;52.472;13.108;2023-10-13T04:19:49;14.00;99.90
9776;DHT22;4927;52.472;13.108;2023-10-13T04:20:57;14.00;99.90
9776;DHT22;4927;52.472;13.108;2023-10-13T04:21:59;14.00;99.90
9776;DHT22;4927;52.472;13.108;2023-10-13T04:23:01;14.00;99.90
9776;DHT22;4927;52.472;13.108;2023-10-13T04:24:11;14.00;99.90
9776;DHT22;4927;52.472;13.108;2023-10-13T04:25:22;14.00;99.90
9776;DHT22;4927;52.472;13.108;2023-10-13T04:26:45;14.00;99.90
9776;DHT22;4927;52.472;13.108;2023-10-13T04:27:53;14.00;99.90
9776;DHT22;4927;52.472;13.108;2023-10-13T04:28:55;14.00;99.90
9776;DHT22;4927;52.472;13.108;2023-10-13T04:29:57;14.00;99.90
9776;DHT22;4927;52.472;13.108;2023-10-13T04:30:58;14.00;99.90
9776;DHT22;4927;52.472;13.108;2023-10-13T04:32:00;14.00;99.90
9776;DHT22;4927;52.472;13.108;2023-10-13T04:33:03;14.00;99.90
9776;DHT22;4927;52.472;13.108;2023-10-13T04:34:08;14.00;99.90
9776;DHT22;4927;52.472;13.108;2023-10-13T04:35:10;14.10;99.90
9776;DHT22;4927;52.472;13.108;2023-10-13T04:36:25;14.10;99.90
9776;DHT22;4927;52.472;13.108;2023-10-13T04:37:41;14.10;99.90
9776;DHT22;4927;52.472;13.108;2023-10-13T04:38:50;14.10;99.90
9776;DHT22;4927;52.472;13.108;2023-10-13T04:39:57;14.10;99.90
9776;DHT22;4927;52.472;13.108;2023-10-13T04:40:59;14.00;99.90
9776;DHT22;4927;52.472;13.108;2023-10-13T04:42:01;14.10;99.90
9776;DHT22;4927;52.472;13.108;2023-10-13T04:43:03;14.10;99.90
9776;DHT22;4927;52.472;13.108;2023-10-13T04:44:05;14.10;99.90
9776;DHT22;4927;52.472;13.108;2023-10-13T04:45:13;14.10;99.90
9776;DHT22;4927;52.472;13.108;2023-10-13T04:46:32;14.10;99.90
9776;DHT22;4927;52.472;13.108;2023-10-13T04:47:37;14.10;99.90
9776;DHT22;4927;52.472;13.108;2023-10-13T04:48:38;14.10;99.90
9776;DHT22;4927;52.472;13.108;2023-10-13T04:49:40;14.10;99.90
9776;DHT22;4927;52.472;13.108;2023-10-13T04:50:58;14.10;99.90
9776;DHT22;4927;52.472;13.108;2023-10-13T04:51:57;14.10;99.90
9776;DHT22;4927;52.472;13.108;2023-10-13T04:53:00;14.10;99.90
9776;DHT22;4927;52.472;13.108;2023-10-13T04:54:02;14.10;99.90
9776;DHT22;4927;52.472;13.108;2023-10-13T04:55:06;14.20;99.90
9776;DHT22;4927;52.472;13.108;2023-10-13T04:56:11;14.10;99.90
9776;DHT22;4927;52.472;13.108;2023-10-13T04:57:20;14.20;99.90
9776;DHT22;4927;52.472;13.108;2023-10-13T04:58:22;14.20;99.90
9776;DHT22;4927;52.472;13.108;2023-10-13T04:59:23;14.20;99.90
9776;DHT22;4927;52.472;13.108;2023-10-13T05:00:32;14.20;99.90
9776;DHT22;4927;52.472;13.108;2023-10-13T05:01:41;14.20;99.90
9776;DHT22;4927;52.472;13.108;2023-10-13T05:02:48;14.20;99.90
9776;DHT22;4927;52.472;13.108;2023-10-13T05:03:56;14.20;99.90
9776;DHT22;4927;52.472;13.108;2023-10-13T05:05:07;14.20;99.90
9776;DHT22;4927;52.472;13.108;2023-10-13T05:06:30;14.20;99.90
9776;DHT22;4927;52.472;13.108;2023-10-13T05:07:38;14.20;99.90
9776;DHT22;4927;52.472;13.108;2023-10-13T05:08:46;14.20;99.90
9776;DHT22;4927;52.472;13.108;2023-10-13T05:10:05;14.20;99.90
9776;DHT22;4927;52.472;13.108;2023-10-13T05:11:13;14.20;99.90
9776;DHT22;4927;52.472;13.108;2023-10-13T05:12:16;14.20;99.90
9776;DHT22;4927;52.472;13.108;2023-10-13T05:13:24;14.20;99.90
9776;DHT22;4927;52.472;13.108;2023-10-13T05:14:32;14.20;99.90
9776;DHT22;4927;52.472;13.108;2023-10-13T05:15:48;14.30;99.90
9776;DHT22;4927;52.472;13.108;2023-10-13T05:16:55;14.20;99.90
9776;DHT22;4927;52.472;13.108;2023-10-13T05:18:04;14.30;99.90
9776;DHT22;4927;52.472;13.108;2023-10-13T05:19:12;14.20;99.90
9776;DHT22;4927;52.472;13.108;2023-10-13T05:20:20;14.30;99.90
9776;DHT22;4927;52.472;13.108;2023-10-13T05:21:28;14.20;99.90
9776;DHT22;4927;52.472;13.108;2023-10-13T05:22:37;14.30;99.90
9776;DHT22;4927;52.472;13.108;2023-10-13T05:23:54;14.30;99.90
9776;DHT22;4927;52.472;13.108;2023-10-13T05:25:03;14.30;99.90
9776;DHT22;4927;52.472;13.108;2023-10-13T05:26:12;14.20;99.90
9776;DHT22;4927;52.472;13.108;2023-10-13T05:27:20;14.30;99.90
9776;DHT22;4927;52.472;13.108;2023-10-13T05:28:27;14.30;99.90
9776;DHT22;4927;52.472;13.108;2023-10-13T05:29:38;14.30;99.90
9776;DHT22;4927;52.472;13.108;2023-10-13T05:30:43;14.30;99.90
9776;DHT22;4927;52.472;13.108;2023-10-13T05:31:51;14.30;99.90
9776;DHT22;4927;52.472;13.108;2023-10-13T05:32:59;14.30;99.90
9776;DHT22;4927;52.472;13.108;2023-10-13T05:34:07;14.30;99.90
9776;DHT22;4927;52.472;13.108;2023-10-13T05:35:15;14.30;99.90
9776;DHT22;4927;52.472;13.108;2023-10-13T05:36:23;14.30;99.90
9776;DHT22;4927;52.472;13.108;2023-10-13T05:37:31;14.30;99.90
9776;DHT22;4927;52.472;13.108;2023-10-13T05:38:39;14.30;99.90
9776;DHT22;4927;52.472;13.108;2023-10-13T05:39:47;14.30;99.90
9776;DHT22;4927;52.472;13.108;2023-10-13T05:40:58;14.30;99.90
9776;DHT22;4927;52.472;13.108;2023-10-13T05:42:05;14.30;99.90
9776;DHT22;4927;52.472;13.108;2023-10-13T05:43:12;14.30;99.90
9776;DHT22;4927;52.472;13.108;2023-10-13T05:44:20;14.30;99.90
9776;DHT22;4927;52.472;13.108;2023-10-13T05:45:29;14.30;99.90
9776;DHT22;4927;52.472;13.108;2023-10-13T05:46:37;14.30;99.90
9776;DHT22;4927;52.472;13.108;2023-10-13T05:47:53;14.30;99.90
9776;DHT22;4927;52.472;13.108;2023-10-13T05:49:04;14.30;99.90
9776;DHT22;4927;52.472;13.108;2023-10-13T05:50:24;14.30;99.90
9776;DHT22;4927;52.472;13.108;2023-10-13T05:51:33;14.30;99.90
9776;DHT22;4927;52.472;13.108;2023-10-13T05:52:52;14.40;99.90
9776;DHT22;4927;52.472;13.108;2023-10-13T05:54:11;14.30;99.90
9776;DHT22;4927;52.472;13.108;2023-10-13T05:55:30;14.30;99.90
9776;DHT22;4927;52.472;13.108;2023-10-13T05:56:37;14.30;99.90
9776;DHT22;4927;52.472;13.108;2023-10-13T05:57:45;14.40;99.90
9776;DHT22;4927;52.472;13.108;2023-10-13T05:58:53;14.30;99.90
9776;DHT22;4927;52.472;13.108;2023-10-13T06:00:00;14.30;99.90
9776;DHT22;4927;52.472;13.108;2023-10-13T06:01:11;14.40;99.90
9776;DHT22;4927;52.472;13.108;2023-10-13T06:02:18;14.40;99.90
9776;DHT22;4927;52.472;13.108;2023-10-13T06:03:25;14.40;99.90
9776;DHT22;4927;52.472;13.108;2023-10-13T06:04:33;14.40;99.90
9776;DHT22;4927;52.472;13.108;2023-10-13T06:05:41;14.40;99.90
9776;DHT22;4927;52.472;13.108;2023-10-13T06:06:49;14.40;99.90
9776;DHT22;4927;52.472;13.108;2023-10-13T06:08:06;14.40;99.90
9776;DHT22;4927;52.472;13.108;2023-10-13T06:09:14;14.50;99.90
9776;DHT22;4927;52.472;13.108;2023-10-13T06:10:22;14.50;99.90
9776;DHT22;4927;52.472;13.108;2023-10-13T06:11:30;14.50;99.90
9776;DHT22;4927;52.472;13.108;2023-10-13T06:12:37;14.50;99.90
9776;DHT22;4927;52.472;13.108;2023-10-13T06:13:47;14.60;99.90
9776;DHT22;4927;52.472;13.108;2023-10-13T06:14:54;14.50;99.90
9776;DHT22;4927;52.472;13.108;2023-10-13T06:16:07;14.60;99.90
9776;DHT22;4927;52.472;13.108;2023-10-13T06:17:15;14.60;99.90
9776;DHT22;4927;52.472;13.108;2023-10-13T06:18:22;14.60;99.90
9776;DHT22;4927;52.472;13.108;2023-10-13T06:19:32;14.70;99.90
9776;DHT22;4927;52.472;13.108;2023-10-13T06:20:39;14.60;99.90
9776;DHT22;4927;52.472;13.108;2023-10-13T06:21:47;14.70;99.90
9776;DHT22;4927;52.472;13.108;2023-10-13T06:22:55;14.70;99.90
9776;DHT22;4927;52.472;13.108;2023-10-13T06:24:04;14.70;99.90
9776;DHT22;4927;52.472;13.108;2023-10-13T06:25:13;14.70;99.90
9776;DHT22;4927;52.472;13.108;2023-10-13T06:26:21;14.70;99.90
9776;DHT22;4927;52.472;13.108;2023-10-13T06:27:28;14.70;99.90
9776;DHT22;4927;52.472;13.108;2023-10-13T06:28:36;14.70;99.90
9776;DHT22;4927;52.472;13.108;2023-10-13T06:29:43;14.80;99.90
9776;DHT22;4927;52.472;13.108;2023-10-13T06:30:53;14.70;99.90
9776;DHT22;4927;52.472;13.108;2023-10-13T06:31:47;14.70;99.90
9776;DHT22;4927;52.472;13.108;2023-10-13T06:32:48;14.70;99.90
9776;DHT22;4927;52.472;13.108;2023-10-13T06:33:50;14.70;99.90
9776;DHT22;4927;52.472;13.108;2023-10-13T06:34:53;14.80;99.90
9776;DHT22;4927;52.472;13.108;2023-10-13T06:36:02;14.70;99.90
9776;DHT22;4927;52.472;13.108;2023-10-13T06:37:04;14.70;99.90
9776;DHT22;4927;52.472;13.108;2023-10-13T06:38:05;14.70;99.90
9776;DHT22;4927;52.472;13.108;2023-10-13T06:39:07;14.70;99.90
9776;DHT22;4927;52.472;13.108;2023-10-13T06:40:15;14.70;99.90
9776;DHT22;4927;52.472;13.108;2023-10-13T06:41:23;14.70;99.90
9776;DHT22;4927;52.472;13.108;2023-10-13T06:42:27;14.70;99.90
9776;DHT22;4927;52.472;13.108;2023-10-13T06:43:29;14.70;99.90
9776;DHT22;4927;52.472;13.108;2023-10-13T06:44:31;14.70;99.90
9776;DHT22;4927;52.472;13.108;2023-10-13T06:49:00;14.80;99.90
9776;DHT22;4927;52.472;13.108;2023-10-13T06:50:02;14.80;99.90
9776;DHT22;4927;52.472;13.108;2023-10-13T06:51:04;14.80;99.90
9776;DHT22;4927;52.472;13.108;2023-10-13T06:52:06;14.90;99.90
9776;DHT22;4927;52.472;13.108;2023-10-13T06:53:08;14.90;99.90
9776;DHT22;4927;52.472;13.108;2023-10-13T06:54:11;15.00;99.90
9776;DHT22;4927;52.472;13.108;2023-10-13T06:55:13;14.90;99.90
9776;DHT22;4927;52.472;13.108;2023-10-13T06:56:16;15.00;99.90
9776;DHT22;4927;52.472;13.108;2023-10-13T06:57:24;15.00;99.90
9776;DHT22;4927;52.472;13.108;2023-10-13T06:58:26;15.00;99.90